Time;durP1;ratioP1;P1;durP2;ratioP2;P2;SDS_P1;SDS_P2;PMS_P1;PMS_P2;Temp;Humidity;BMP_temperature;BMP_pressure;BME280_temperature;BME280_humidity;BME280_pressure;Samples;Min_cycle;Max_cycle;Signal;HPM_P1;HPM_P2
2021/06/11 00:00:50;;;;;;;11.63;10.50;;;20.40;99.90;;;;;;5084836;28;20422;-38
2021/06/11 00:03:16;;;;;;;11.67;10.40;;;20.40;99.90;;;;;;5070218;28;20527;-38
2021/06/11 00:05:42;;;;;;;11.83;10.63;;;20.40;99.90;;;;;;5088240;28;20415;-38
2021/06/11 00:08:08;;;;;;;11.30;10.30;;;20.30;99.90;;;;;;5087113;28;20411;-38
2021/06/11 00:10:35;;;;;;;12.07;10.83;;;20.30;99.90;;;;;;5082554;28;20521;-38
2021/06/11 00:13:01;;;;;;;11.70;10.60;;;20.20;99.90;;;;;;5080790;28;20419;-38
2021/06/11 00:15:27;;;;;;;11.57;9.73;;;20.20;99.90;;;;;;5086006;28;20415;-38
2021/06/11 00:17:54;;;;;;;11.13;10.13;;;20.20;99.90;;;;;;5088100;28;20917;-38
2021/06/11 00:20:21;;;;;;;11.20;10.17;;;20.10;99.90;;;;;;5087150;28;20434;-37
2021/06/11 00:22:47;;;;;;;11.97;10.57;;;20.10;99.90;;;;;;5087708;28;20478;-38
2021/06/11 00:25:18;;;;;;;12.43;11.13;;;20.00;99.90;;;;;;5064068;28;20489;-38
2021/06/11 00:27:44;;;;;;;11.93;10.77;;;20.00;99.90;;;;;;5079989;28;20433;-38
2021/06/11 00:30:11;;;;;;;11.77;10.60;;;19.90;99.90;;;;;;5086712;28;20427;-37
2021/06/11 00:32:39;;;;;;;13.17;11.40;;;19.90;99.90;;;;;;5087215;28;20590;-38
2021/06/11 00:35:08;;;;;;;11.07;10.07;;;19.80;99.90;;;;;;5088014;28;20421;-37
2021/06/11 00:37:34;;;;;;;11.20;10.00;;;19.70;99.90;;;;;;5087447;28;20517;-37
2021/06/11 00:40:00;;;;;;;10.80;9.80;;;19.70;99.90;;;;;;5083026;28;20431;-37
2021/06/11 00:42:27;;;;;;;10.47;9.50;;;19.60;99.90;;;;;;5084692;28;20496;-37
2021/06/11 00:44:53;;;;;;;11.17;10.17;;;19.60;99.90;;;;;;5074452;28;20418;-38
2021/06/11 00:47:19;;;;;;;10.73;9.63;;;19.60;99.90;;;;;;5087062;28;20816;-38
2021/06/11 00:49:47;;;;;;;10.37;9.37;;;19.50;99.90;;;;;;5055373;28;20267;-37
2021/06/11 00:52:14;;;;;;;8.97;8.07;;;19.40;99.90;;;;;;5087191;28;20238;-38
2021/06/11 00:54:39;;;;;;;9.60;8.70;;;19.40;99.90;;;;;;5062262;28;20480;-38
2021/06/11 00:57:05;;;;;;;9.33;8.53;;;19.30;99.90;;;;;;5082421;28;20952;-37
2021/06/11 00:59:31;;;;;;;9.63;8.77;;;19.30;99.90;;;;;;5080677;28;20577;-38
2021/06/11 01:01:57;;;;;;;8.60;7.90;;;19.20;99.90;;;;;;5086637;28;20514;-37
2021/06/11 01:04:23;;;;;;;9.47;8.47;;;19.10;99.90;;;;;;5086788;28;20465;-37
2021/06/11 01:06:49;;;;;;;9.83;8.93;;;19.00;99.90;;;;;;5068961;28;20192;-37
2021/06/11 01:09:16;;;;;;;9.17;8.37;;;18.70;99.90;;;;;;5085472;28;20196;-38
2021/06/11 01:11:44;;;;;;;9.27;8.40;;;18.60;99.90;;;;;;5080160;28;20411;-38
2021/06/11 01:14:11;;;;;;;9.80;8.90;;;18.50;99.90;;;;;;5085975;28;20753;-37
2021/06/11 01:16:37;;;;;;;9.20;8.30;;;18.40;99.90;;;;;;5086535;28;20521;-37
2021/06/11 01:19:05;;;;;;;9.50;8.63;;;18.30;99.90;;;;;;5086091;28;20418;-37
2021/06/11 01:21:33;;;;;;;10.50;9.50;;;18.20;99.90;;;;;;5086617;28;20822;-37
2021/06/11 01:24:13;;;;;;;9.93;9.07;;;18.10;99.90;;;;;;5086784;28;20477;-38
2021/06/11 01:26:43;;;;;;;9.93;8.93;;;18.10;99.90;;;;;;5080630;28;20429;-38
2021/06/11 01:29:13;;;;;;;9.80;8.90;;;18.00;99.90;;;;;;5082898;28;20419;-38
2021/06/11 01:31:41;;;;;;;11.27;10.27;;;18.00;99.90;;;;;;5048325;28;20518;-37
2021/06/11 01:34:29;;;;;;;10.00;9.13;;;18.00;99.90;;;;;;5078274;28;20537;-37
2021/06/11 01:37:09;;;;;;;10.67;9.77;;;17.90;99.90;;;;;;5086315;28;20479;-37
2021/06/11 01:39:36;;;;;;;10.23;9.20;;;17.90;99.90;;;;;;5081166;28;20438;-37
2021/06/11 01:42:03;;;;;;;10.30;9.37;;;17.90;99.90;;;;;;5081798;28;20446;-37
2021/06/11 01:44:30;;;;;;;10.30;9.30;;;17.90;99.90;;;;;;5079546;28;21123;-38
2021/06/11 01:46:59;;;;;;;10.27;9.40;;;17.90;99.90;;;;;;5086311;28;20423;-38
2021/06/11 01:49:26;;;;;;;10.47;9.43;;;17.90;99.90;;;;;;5085773;28;20790;-38
2021/06/11 01:51:54;;;;;;;9.90;9.10;;;17.80;99.90;;;;;;5085910;28;20422;-38
2021/06/11 01:54:21;;;;;;;9.33;8.47;;;17.80;99.90;;;;;;5084712;28;20437;-38
2021/06/11 01:56:48;;;;;;;9.90;9.00;;;17.80;99.90;;;;;;5079928;28;20412;-37
2021/06/11 01:59:14;;;;;;;10.70;9.67;;;17.70;99.90;;;;;;5081808;28;20435;-38
2021/06/11 02:01:41;;;;;;;10.60;9.60;;;17.80;99.90;;;;;;5086301;28;20975;-38
2021/06/11 02:04:07;;;;;;;11.17;9.90;;;17.70;99.90;;;;;;5086331;28;20458;-38
2021/06/11 02:06:34;;;;;;;10.23;9.20;;;17.70;99.90;;;;;;5086257;28;20423;-38
2021/06/11 02:09:01;;;;;;;10.03;9.13;;;17.60;99.90;;;;;;5085460;28;20450;-38
2021/06/11 02:11:27;;;;;;;9.97;9.00;;;17.60;99.90;;;;;;5077883;28;20427;-37
2021/06/11 02:13:54;;;;;;;12.20;10.37;;;17.60;99.90;;;;;;5066161;28;20426;-37
2021/06/11 02:16:24;;;;;;;9.03;8.33;;;17.50;99.90;;;;;;5086505;28;20686;-38
2021/06/11 02:18:51;;;;;;;10.70;9.70;;;17.50;99.90;;;;;;5067322;28;20984;-37
2021/06/11 02:21:17;;;;;;;9.13;8.20;;;17.60;99.90;;;;;;5086270;28;20433;-38
2021/06/11 02:23:44;;;;;;;10.63;9.17;;;17.50;99.90;;;;;;5086048;28;20461;-37
2021/06/11 02:26:12;;;;;;;9.50;8.23;;;17.40;99.90;;;;;;5074197;28;20526;-38
2021/06/11 02:28:39;;;;;;;9.17;8.27;;;17.30;99.90;;;;;;5084866;28;20426;-37
2021/06/11 02:31:05;;;;;;;9.70;8.80;;;17.30;99.90;;;;;;5081066;28;20433;-37
2021/06/11 02:33:31;;;;;;;11.67;10.47;;;17.30;99.90;;;;;;5089359;28;20422;-37
2021/06/11 02:35:57;;;;;;;10.70;9.67;;;17.30;99.90;;;;;;5071904;28;20433;-38
2021/06/11 02:38:23;;;;;;;9.57;8.67;;;17.20;99.90;;;;;;5089947;28;20313;-37
2021/06/11 02:40:50;;;;;;;10.30;9.40;;;17.20;99.90;;;;;;5085164;28;20595;-37
2021/06/11 02:43:20;;;;;;;9.50;8.60;;;17.20;99.90;;;;;;5084942;28;20518;-37
2021/06/11 02:46:13;;;;;;;11.33;9.60;;;17.20;99.90;;;;;;5086830;28;20422;-38
2021/06/11 02:48:45;;;;;;;10.93;9.93;;;17.10;99.90;;;;;;5074149;28;20797;-37
2021/06/11 02:51:36;;;;;;;11.80;10.53;;;17.10;99.90;;;;;;5089559;28;20422;-37
2021/06/11 02:54:03;;;;;;;12.00;10.83;;;17.20;99.90;;;;;;5089682;28;20453;-38
2021/06/11 02:56:41;;;;;;;14.10;10.03;;;17.20;99.90;;;;;;5083551;28;20435;-37
2021/06/11 02:59:13;;;;;;;10.50;9.60;;;17.10;99.90;;;;;;5066308;28;20437;-37
2021/06/11 03:01:44;;;;;;;12.10;10.90;;;17.10;99.90;;;;;;5089716;28;20430;-37
2021/06/11 03:04:10;;;;;;;10.17;9.17;;;17.10;99.90;;;;;;5089385;28;20674;-37
2021/06/11 03:06:37;;;;;;;10.43;9.53;;;17.20;99.90;;;;;;5089615;28;20418;-37
2021/06/11 03:09:08;;;;;;;10.30;9.37;;;17.30;99.90;;;;;;5070461;28;20422;-37
2021/06/11 03:11:38;;;;;;;9.97;9.13;;;17.40;99.90;;;;;;5080107;28;20685;-37
2021/06/11 03:14:05;;;;;;;11.00;9.90;;;17.40;99.90;;;;;;5088621;28;21020;-37
2021/06/11 03:16:31;;;;;;;12.00;10.97;;;17.30;99.90;;;;;;5083996;28;21046;-37
2021/06/11 03:19:03;;;;;;;11.70;10.60;;;17.20;99.90;;;;;;5088612;28;20428;-38
2021/06/11 03:21:36;;;;;;;11.60;10.50;;;17.00;99.90;;;;;;5088978;28;20450;-37
2021/06/11 03:24:36;;;;;;;12.20;11.10;;;16.90;99.90;;;;;;5089107;28;20458;-37
2021/06/11 03:27:12;;;;;;;12.00;10.90;;;16.80;99.90;;;;;;5079893;28;20452;-38
2021/06/11 03:29:52;;;;;;;12.40;11.20;;;16.80;99.90;;;;;;5084637;28;20411;-37
2021/06/11 03:32:33;;;;;;;13.80;12.40;;;16.80;99.90;;;;;;5088944;28;20503;-37
2021/06/11 03:35:04;;;;;;;12.80;11.20;;;16.90;99.90;;;;;;5089117;28;20900;-37
2021/06/11 03:37:32;;;;;;;13.10;11.90;;;16.90;99.90;;;;;;5088574;28;20421;-38
2021/06/11 03:40:00;;;;;;;11.63;10.63;;;16.90;99.90;;;;;;5085928;28;20422;-38
2021/06/11 03:42:28;;;;;;;13.50;12.30;;;16.80;99.90;;;;;;5080736;28;20577;-37
2021/06/11 03:44:56;;;;;;;12.27;11.17;;;16.80;99.90;;;;;;5088829;28;20423;-37
2021/06/11 03:47:24;;;;;;;13.73;12.37;;;16.80;99.90;;;;;;5088441;28;20507;-37
2021/06/11 03:49:54;;;;;;;13.47;12.10;;;16.80;99.90;;;;;;5088173;28;20429;-38
2021/06/11 03:52:26;;;;;;;13.87;12.37;;;16.80;99.90;;;;;;5088284;28;20908;-37
2021/06/11 03:54:56;;;;;;;12.93;11.80;;;16.90;99.90;;;;;;5088534;28;20475;-38
2021/06/11 03:57:26;;;;;;;13.20;11.90;;;16.80;99.90;;;;;;5081288;28;20771;-37
2021/06/11 03:59:53;;;;;;;14.20;12.70;;;16.80;99.90;;;;;;5082977;28;20835;-37
2021/06/11 04:02:19;;;;;;;12.57;11.27;;;16.80;99.90;;;;;;5088335;28;20465;-37
2021/06/11 04:04:45;;;;;;;13.07;11.87;;;16.80;99.90;;;;;;5088128;28;20796;-37
2021/06/11 04:07:31;;;;;;;12.90;11.70;;;16.80;99.90;;;;;;5088388;28;20188;-37
2021/06/11 04:10:11;;;;;;;12.40;11.30;;;16.80;99.90;;;;;;5087551;28;20275;-37
2021/06/11 04:12:42;;;;;;;13.10;11.80;;;16.90;99.90;;;;;;5061414;28;20449;-37
2021/06/11 04:15:08;;;;;;;13.13;12.03;;;17.00;99.90;;;;;;5084582;28;20776;-37
2021/06/11 04:17:40;;;;;;;13.17;12.07;;;17.00;99.90;;;;;;5087956;28;20946;-38
2021/06/11 04:20:11;;;;;;;13.60;12.30;;;17.00;99.90;;;;;;5069381;28;20434;-38
2021/06/11 04:22:41;;;;;;;13.87;12.27;;;17.10;99.90;;;;;;5087817;28;20454;-37
2021/06/11 04:25:09;;;;;;;13.87;12.47;;;17.20;99.90;;;;;;5087772;28;20618;-37
2021/06/11 04:27:37;;;;;;;12.83;11.67;;;17.20;99.90;;;;;;5075985;28;20485;-37
2021/06/11 04:30:04;;;;;;;12.70;11.50;;;17.20;99.90;;;;;;5084580;28;20439;-37
2021/06/11 04:32:30;;;;;;;15.80;14.40;;;17.30;99.90;;;;;;5069597;28;20429;-37
2021/06/11 04:34:56;;;;;;;14.50;13.07;;;17.40;99.90;;;;;;5087669;28;20414;-37
2021/06/11 04:37:22;;;;;;;14.60;13.20;;;17.40;99.90;;;;;;5087920;28;20284;-37
2021/06/11 04:39:48;;;;;;;14.43;13.03;;;17.50;99.90;;;;;;5085230;28;20877;-37
2021/06/11 04:42:14;;;;;;;13.03;11.83;;;17.60;99.90;;;;;;5073235;28;20522;-37
2021/06/11 04:44:40;;;;;;;15.10;13.60;;;17.70;99.90;;;;;;5083693;28;20180;-37
2021/06/11 04:47:06;;;;;;;15.83;14.27;;;17.70;99.90;;;;;;5061299;28;20534;-37
2021/06/11 04:49:31;;;;;;;15.13;13.60;;;17.80;99.90;;;;;;5086965;28;20195;-37
2021/06/11 04:51:57;;;;;;;17.27;15.20;;;17.70;99.90;;;;;;5087502;28;20427;-37
2021/06/11 04:54:23;;;;;;;16.10;13.70;;;17.90;99.90;;;;;;5086900;28;20180;-38
2021/06/11 04:56:48;;;;;;;15.53;13.93;;;18.00;99.90;;;;;;5064890;28;20276;-37
2021/06/11 04:59:14;;;;;;;16.07;14.47;;;18.10;99.90;;;;;;5078734;28;20227;-37
2021/06/11 05:01:40;;;;;;;15.67;14.03;;;18.20;99.90;;;;;;5078837;28;20223;-37
2021/06/11 05:04:05;;;;;;;13.90;12.60;;;18.20;99.90;;;;;;5068926;28;20287;-38
2021/06/11 05:06:31;;;;;;;15.07;13.57;;;18.20;99.90;;;;;;5073920;28;20173;-37
2021/06/11 05:08:57;;;;;;;14.47;13.13;;;18.30;99.90;;;;;;5085069;28;20234;-38
2021/06/11 05:11:23;;;;;;;16.37;14.87;;;18.50;99.90;;;;;;5079655;28;20177;-37
2021/06/11 05:13:48;;;;;;;15.77;14.17;;;18.50;99.90;;;;;;5082165;28;20189;-37
2021/06/11 05:16:14;;;;;;;15.47;13.83;;;18.50;99.90;;;;;;5067464;28;20199;-38
2021/06/11 05:18:40;;;;;;;16.23;14.57;;;18.60;99.90;;;;;;5086489;28;20258;-37
2021/06/11 05:21:06;;;;;;;16.93;15.23;;;18.70;99.90;;;;;;5087105;28;20184;-37
2021/06/11 05:23:32;;;;;;;16.20;14.70;;;18.70;99.90;;;;;;5086484;28;20208;-37
2021/06/11 05:25:58;;;;;;;16.03;14.30;;;18.70;99.90;;;;;;5068177;28;20460;-38
2021/06/11 05:28:24;;;;;;;17.73;16.03;;;18.80;99.90;;;;;;5061838;28;20448;-37
2021/06/11 05:30:50;;;;;;;16.60;14.90;;;18.90;99.90;;;;;;5083075;28;20422;-37
2021/06/11 05:33:16;;;;;;;20.37;16.53;;;19.00;99.90;;;;;;5086683;28;20295;-37
2021/06/11 05:35:42;;;;;;;15.70;14.10;;;19.00;99.90;;;;;;5068684;28;20502;-37
2021/06/11 05:38:08;;;;;;;15.27;13.77;;;19.10;99.90;;;;;;5086268;28;20176;-37
2021/06/11 05:40:35;;;;;;;15.80;14.40;;;19.30;99.90;;;;;;5084389;28;20188;-37
2021/06/11 05:43:00;;;;;;;17.30;14.60;;;19.40;99.90;;;;;;5081590;28;20208;-37
2021/06/11 05:45:27;;;;;;;15.87;14.40;;;19.60;99.90;;;;;;5082670;28;20426;-37
2021/06/11 05:47:53;;;;;;;16.20;14.60;;;19.70;99.90;;;;;;5083552;28;20188;-37
2021/06/11 05:50:19;;;;;;;16.17;14.37;;;19.80;99.90;;;;;;5086094;28;20422;-37
2021/06/11 05:52:45;;;;;;;17.40;15.80;;;19.90;99.90;;;;;;5086616;28;20426;-38
2021/06/11 05:55:13;;;;;;;17.53;15.73;;;20.10;99.90;;;;;;5086394;28;20192;-38
2021/06/11 05:57:39;;;;;;;16.40;14.83;;;20.20;99.90;;;;;;5077804;28;20184;-38
2021/06/11 06:00:06;;;;;;;18.33;16.43;;;20.40;99.90;;;;;;5081868;28;20503;-38
2021/06/11 06:02:31;;;;;;;16.90;15.23;;;20.40;99.90;;;;;;5083367;28;20223;-37
2021/06/11 06:04:57;;;;;;;17.73;15.50;;;20.50;99.90;;;;;;5086175;28;20426;-38
2021/06/11 06:07:23;;;;;;;19.63;16.97;;;20.70;99.90;;;;;;5090181;28;20191;-38
2021/06/11 06:09:49;;;;;;;17.80;16.20;;;20.70;99.90;;;;;;5089812;28;20192;-37
2021/06/11 06:12:14;;;;;;;17.83;16.03;;;20.80;99.90;;;;;;5082580;28;20433;-38
2021/06/11 06:14:40;;;;;;;19.10;15.80;;;20.90;99.90;;;;;;5081891;28;20735;-37
2021/06/11 06:17:06;;;;;;;15.97;14.57;;;21.00;99.90;;;;;;5090238;28;20188;-38
2021/06/11 06:19:31;;;;;;;17.33;15.70;;;21.10;99.90;;;;;;5089498;28;20656;-38
2021/06/11 06:21:57;;;;;;;18.13;16.23;;;21.20;99.90;;;;;;5090338;28;20244;-37
2021/06/11 06:24:23;;;;;;;16.20;14.70;;;21.30;99.90;;;;;;5090327;28;20670;-38
2021/06/11 06:26:49;;;;;;;16.60;14.93;;;21.50;99.90;;;;;;5086013;28;20427;-37
2021/06/11 06:29:15;;;;;;;16.03;14.07;;;21.70;99.90;;;;;;5070173;28;20430;-38
2021/06/11 06:31:40;;;;;;;15.77;14.40;;;21.90;99.90;;;;;;5084328;28;20188;-38
2021/06/11 06:34:06;;;;;;;17.80;14.57;;;22.00;99.90;;;;;;5072084;28;20269;-38
2021/06/11 06:36:32;;;;;;;15.37;13.80;;;22.10;99.90;;;;;;5088903;28;20196;-38
2021/06/11 06:39:01;;;;;;;14.90;13.40;;;22.30;99.90;;;;;;5088647;28;20193;-37
2021/06/11 06:41:27;;;;;;;15.70;14.20;;;22.40;99.90;;;;;;5084844;28;20196;-37
2021/06/11 06:43:53;;;;;;;16.37;14.87;;;22.50;99.90;;;;;;5064825;28;20549;-38
2021/06/11 06:46:21;;;;;;;14.43;13.03;;;22.50;99.90;;;;;;5086264;28;20513;-37
2021/06/11 06:48:51;;;;;;;15.07;13.53;;;22.60;99.90;;;;;;5070697;28;20204;-38
2021/06/11 06:51:18;;;;;;;15.07;13.50;;;22.70;99.90;;;;;;5080819;28;20418;-38
2021/06/11 06:53:44;;;;;;;16.77;14.67;;;22.80;99.90;;;;;;5089722;28;20627;-38
2021/06/11 06:56:10;;;;;;;15.97;13.60;;;22.90;99.90;;;;;;5071101;28;20434;-37
2021/06/11 06:58:36;;;;;;;15.27;13.87;;;22.90;99.90;;;;;;5070594;28;20567;-38
2021/06/11 07:01:03;;;;;;;14.03;12.67;;;22.90;99.90;;;;;;5087538;28;20200;-38
2021/06/11 07:03:29;;;;;;;14.83;13.43;;;23.10;99.90;;;;;;5089434;28;20545;-38
2021/06/11 07:05:55;;;;;;;14.60;13.20;;;23.10;99.90;;;;;;5089474;28;20514;-38
2021/06/11 07:08:20;;;;;;;14.50;13.10;;;23.10;99.90;;;;;;5089072;28;20597;-38
2021/06/11 07:10:46;;;;;;;14.93;13.53;;;23.20;99.90;;;;;;5071015;28;20279;-38
2021/06/11 07:13:14;;;;;;;15.40;13.87;;;23.20;99.90;;;;;;5077640;28;20227;-38
2021/06/11 07:15:40;;;;;;;15.43;13.93;;;23.20;99.90;;;;;;5087641;28;20671;-38
2021/06/11 07:18:07;;;;;;;15.60;13.93;;;23.20;99.90;;;;;;5082046;28;20430;-38
2021/06/11 07:20:32;;;;;;;15.33;13.90;;;23.30;99.90;;;;;;5070756;28;20216;-38
2021/06/11 07:22:58;;;;;;;16.10;13.33;;;23.30;99.90;;;;;;5070623;28;21026;-38
2021/06/11 07:25:24;;;;;;;17.43;13.20;;;23.30;99.90;;;;;;5089300;28;20192;-38
2021/06/11 07:27:49;;;;;;;14.73;13.13;;;23.40;99.90;;;;;;5084310;28;20197;-38
2021/06/11 07:30:16;;;;;;;14.67;12.00;;;23.50;99.90;;;;;;5081772;28;20185;-38
2021/06/11 07:32:42;;;;;;;13.50;12.07;;;23.60;99.90;;;;;;5066578;28;20202;-38
2021/06/11 07:35:12;;;;;;;13.73;12.27;;;23.70;99.90;;;;;;5070926;28;20939;-38
2021/06/11 07:37:38;;;;;;;15.17;13.67;;;23.80;99.90;;;;;;5088607;28;20660;-38
2021/06/11 07:40:07;;;;;;;14.97;12.00;;;23.80;99.90;;;;;;5086178;28;20437;-38
2021/06/11 07:42:33;;;;;;;15.17;13.27;;;23.90;99.90;;;;;;5083869;28;20209;-38
2021/06/11 07:44:58;;;;;;;14.40;12.60;;;23.90;99.90;;;;;;5078173;28;20411;-38
2021/06/11 07:47:24;;;;;;;15.10;12.40;;;24.00;99.90;;;;;;5070179;28;20188;-39
2021/06/11 07:49:50;;;;;;;13.90;12.30;;;24.00;99.90;;;;;;5087917;28;20561;-38
2021/06/11 07:52:15;;;;;;;12.93;11.63;;;24.10;99.90;;;;;;5088218;28;20283;-38
2021/06/11 07:54:41;;;;;;;13.53;12.17;;;24.10;99.90;;;;;;5088562;28;20184;-38
2021/06/11 07:57:08;;;;;;;14.00;12.50;;;24.20;99.90;;;;;;5069773;28;20286;-38
2021/06/11 07:59:34;;;;;;;18.67;13.80;;;24.20;99.90;;;;;;5081664;28;20418;-38
2021/06/11 08:01:59;;;;;;;17.20;13.30;;;24.20;99.90;;;;;;5083729;28;20422;-38
2021/06/11 08:04:26;;;;;;;14.23;10.70;;;24.20;99.90;;;;;;5088173;28;20628;-38
2021/06/11 08:06:52;;;;;;;16.03;13.10;;;24.10;99.90;;;;;;5087961;28;20188;-38
2021/06/11 08:09:17;;;;;;;19.83;11.70;;;24.10;99.90;;;;;;5087900;28;20480;-38
2021/06/11 08:11:43;;;;;;;15.40;12.03;;;24.10;99.90;;;;;;5069476;28;20677;-38
2021/06/11 08:14:09;;;;;;;15.23;11.77;;;24.10;99.90;;;;;;5083427;28;20252;-38
2021/06/11 08:16:34;;;;;;;15.67;12.20;;;24.10;99.90;;;;;;5083061;28;20192;-38
2021/06/11 08:19:00;;;;;;;16.10;11.47;;;24.10;99.90;;;;;;5087459;28;20204;-38
2021/06/11 08:21:26;;;;;;;12.60;11.00;;;24.10;99.90;;;;;;5069320;28;20196;-38
2021/06/11 08:23:51;;;;;;;14.33;11.27;;;24.10;99.90;;;;;;5088006;28;20243;-38
2021/06/11 08:26:17;;;;;;;15.93;11.40;;;24.20;99.90;;;;;;5087905;28;20647;-38
2021/06/11 08:28:43;;;;;;;14.83;12.03;;;24.30;99.90;;;;;;5081161;28;20192;-38
2021/06/11 08:31:09;;;;;;;25.33;15.43;;;24.50;99.90;;;;;;5083590;28;20450;-38
2021/06/11 08:33:35;;;;;;;15.27;11.07;;;24.50;99.90;;;;;;5087817;28;20396;-38
2021/06/11 08:36:00;;;;;;;17.53;13.60;;;24.60;99.90;;;;;;5087345;28;20188;-38
2021/06/11 08:38:26;;;;;;;14.70;11.40;;;24.60;99.90;;;;;;5087826;28;20264;-38
2021/06/11 08:40:53;;;;;;;22.57;13.53;;;24.60;99.90;;;;;;5067175;28;20246;-38
2021/06/11 08:43:19;;;;;;;15.87;12.87;;;24.50;99.90;;;;;;5079138;28;20481;-38
2021/06/11 08:45:47;;;;;;;16.83;13.47;;;24.50;99.90;;;;;;5086395;28;20442;-38
2021/06/11 08:48:13;;;;;;;18.67;13.17;;;24.40;99.90;;;;;;5084227;28;20441;-38
2021/06/11 08:50:41;;;;;;;16.33;13.43;;;24.30;99.90;;;;;;5086487;28;20426;-38
2021/06/11 08:53:07;;;;;;;14.80;11.90;;;24.40;99.90;;;;;;5087139;28;20184;-38
2021/06/11 08:55:36;;;;;;;16.13;12.53;;;24.40;99.90;;;;;;5087543;28;20429;-38
2021/06/11 08:58:02;;;;;;;13.87;12.43;;;24.40;99.90;;;;;;5078212;28;20443;-38
2021/06/11 09:00:29;;;;;;;18.63;13.23;;;24.50;99.90;;;;;;5083482;28;20434;-38
2021/06/11 09:03:07;;;;;;;14.73;11.17;;;24.70;99.90;;;;;;5080456;28;20851;-38
2021/06/11 09:05:32;;;;;;;15.73;13.57;;;24.90;99.90;;;;;;5087413;28;20779;-38
2021/06/11 09:08:24;;;;;;;14.70;12.87;;;25.00;99.90;;;;;;5087328;28;20422;-38
2021/06/11 09:11:14;;;;;;;18.27;14.27;;;25.20;99.90;;;;;;5083400;28;20240;-39
2021/06/11 09:13:41;;;;;;;16.17;12.67;;;25.30;99.90;;;;;;5076594;28;20956;-38
2021/06/11 09:16:25;;;;;;;17.10;15.37;;;25.40;99.90;;;;;;5082893;28;20705;-38
2021/06/11 09:18:58;;;;;;;15.10;13.50;;;25.30;99.90;;;;;;5085927;28;20807;-38
2021/06/11 09:21:38;;;;;;;16.10;13.83;;;25.10;99.90;;;;;;5087205;28;20431;-38
2021/06/11 09:24:20;;;;;;;18.20;16.60;;;25.00;99.90;;;;;;5086339;28;20653;-38
2021/06/11 09:26:58;;;;;;;17.30;15.50;;;24.90;99.90;;;;;;5086991;28;20426;-38
2021/06/11 09:29:45;;;;;;;20.00;17.40;;;25.00;99.90;;;;;;5077286;28;20431;-38
2021/06/11 09:32:28;;;;;;;20.63;18.53;;;24.80;99.90;;;;;;5058734;28;20407;-38
2021/06/11 09:34:56;;;;;;;19.73;17.70;;;25.00;99.90;;;;;;5084949;28;20429;-39
2021/06/11 09:37:37;;;;;;;19.23;17.03;;;25.00;99.90;;;;;;5086535;28;20777;-38
2021/06/11 09:40:12;;;;;;;19.67;17.67;;;25.10;99.90;;;;;;5084260;28;20765;-39
2021/06/11 09:42:48;;;;;;;17.37;15.67;;;25.20;99.90;;;;;;5083371;28;20472;-38
2021/06/11 09:45:16;;;;;;;19.23;17.47;;;25.30;99.90;;;;;;5076105;28;20422;-39
2021/06/11 09:47:44;;;;;;;21.90;20.00;;;25.20;99.90;;;;;;5085367;28;20414;-39
2021/06/11 09:50:15;;;;;;;21.00;18.80;;;25.40;99.90;;;;;;5084060;28;20423;-38
2021/06/11 09:53:01;;;;;;;19.50;17.70;;;25.50;99.90;;;;;;5075129;28;20426;-38
2021/06/11 09:55:27;;;;;;;19.23;17.37;;;25.80;99.90;;;;;;5073596;28;20845;-38
2021/06/11 09:58:26;;;;;;;22.20;20.30;;;26.00;99.90;;;;;;5083054;28;20505;-38
2021/06/11 10:00:55;;;;;;;20.00;17.90;;;26.20;99.90;;;;;;5065521;28;20212;-38
2021/06/11 10:03:29;;;;;;;20.63;18.73;;;26.40;99.90;;;;;;5085215;28;20547;-38
2021/06/11 10:05:57;;;;;;;22.60;20.60;;;26.40;99.90;;;;;;5069971;28;20418;-39
2021/06/11 10:08:24;;;;;;;22.90;20.70;;;26.30;99.90;;;;;;5086388;28;20418;-38
2021/06/11 10:10:52;;;;;;;20.97;19.23;;;26.30;99.90;;;;;;5086356;28;20422;-38
2021/06/11 10:13:19;;;;;;;18.80;17.10;;;26.40;99.90;;;;;;5066893;28;20426;-38
2021/06/11 10:15:46;;;;;;;17.47;15.77;;;26.40;99.90;;;;;;5079859;28;20503;-38
2021/06/11 10:18:13;;;;;;;14.60;13.33;;;26.40;99.90;;;;;;5065309;28;20434;-38
2021/06/11 10:20:40;;;;;;;16.90;15.50;;;26.50;99.50;;;;;;5067636;28;20422;-38
2021/06/11 10:23:08;;;;;;;15.70;14.30;;;26.60;99.90;;;;;;5068070;28;21047;-38
2021/06/11 10:25:34;;;;;;;16.00;13.73;;;26.60;99.90;;;;;;5086057;28;20481;-38
2021/06/11 10:28:04;;;;;;;13.87;12.67;;;26.60;99.90;;;;;;5067075;28;20998;-38
2021/06/11 10:30:30;;;;;;;12.57;11.43;;;26.70;99.90;;;;;;5061865;28;20426;-38
2021/06/11 10:32:59;;;;;;;9.63;8.73;;;26.70;99.70;;;;;;5079314;28;20535;-38
2021/06/11 10:35:48;;;;;;;14.30;13.10;;;26.80;99.60;;;;;;5086006;28;20980;-38
2021/06/11 10:38:31;;;;;;;17.33;14.40;;;26.70;98.50;;;;;;5086163;28;20760;-39
2021/06/11 10:41:06;;;;;;;13.03;11.73;;;26.50;98.80;;;;;;5066182;28;20433;-38
2021/06/11 10:43:39;;;;;;;11.90;10.80;;;26.50;99.60;;;;;;5061096;28;20479;-38
2021/06/11 10:46:24;;;;;;;12.93;11.80;;;26.60;99.20;;;;;;5079647;28;20948;-38
2021/06/11 10:48:56;;;;;;;11.57;10.60;;;26.70;98.50;;;;;;5077805;28;20475;-38
2021/06/11 10:51:47;;;;;;;12.47;10.67;;;26.60;99.10;;;;;;5068102;28;20457;-38
2021/06/11 10:54:19;;;;;;;9.10;8.40;;;26.50;98.40;;;;;;5072942;28;20819;-39
2021/06/11 10:56:57;;;;;;;10.60;8.93;;;26.50;99.20;;;;;;5088046;28;20876;-39
2021/06/11 10:59:31;;;;;;;11.90;11.00;;;26.40;99.30;;;;;;5081826;28;20454;-39
2021/06/11 11:01:57;;;;;;;11.07;10.07;;;26.60;99.90;;;;;;5087071;28;20420;-39
2021/06/11 11:04:27;;;;;;;9.97;9.13;;;26.70;98.90;;;;;;5088737;28;20801;-39
2021/06/11 11:06:53;;;;;;;9.67;8.87;;;26.70;99.80;;;;;;5086099;28;20703;-38
2021/06/11 11:09:19;;;;;;;11.37;10.27;;;26.70;97.70;;;;;;5069520;28;20559;-39
2021/06/11 11:11:46;;;;;;;10.03;8.87;;;26.80;99.00;;;;;;5088414;28;20195;-39
2021/06/11 11:14:40;;;;;;;10.17;9.37;;;26.80;98.90;;;;;;5078805;28;20191;-39
2021/06/11 11:17:07;;;;;;;11.47;10.40;;;26.70;98.60;;;;;;5083399;28;20459;-39
2021/06/11 11:19:47;;;;;;;9.73;8.77;;;26.80;99.20;;;;;;5087288;28;20798;-38
2021/06/11 11:22:40;;;;;;;8.43;7.73;;;26.80;98.90;;;;;;5088915;28;20433;-39
2021/06/11 11:25:12;;;;;;;11.20;10.20;;;26.80;98.50;;;;;;5085041;28;20434;-39
2021/06/11 11:27:38;;;;;;;9.47;8.77;;;26.80;97.50;;;;;;5088762;28;20427;-39
2021/06/11 11:30:04;;;;;;;9.00;8.10;;;26.80;96.30;;;;;;5061514;28;20823;-39
2021/06/11 11:32:31;;;;;;;7.90;7.30;;;26.90;97.00;;;;;;5087533;28;20238;-38
2021/06/11 11:34:56;;;;;;;8.40;7.80;;;27.00;96.80;;;;;;5087532;28;20415;-39
2021/06/11 11:37:22;;;;;;;7.37;6.30;;;26.90;96.90;;;;;;5088567;28;20476;-39
2021/06/11 11:39:48;;;;;;;7.53;6.83;;;26.90;97.30;;;;;;5086505;28;20263;-38
2021/06/11 11:42:15;;;;;;;8.40;7.70;;;26.90;97.00;;;;;;5088994;28;20756;-38
2021/06/11 11:44:41;;;;;;;8.93;8.13;;;26.90;96.70;;;;;;5077374;28;20212;-38
2021/06/11 11:47:07;;;;;;;9.97;9.17;;;26.90;98.00;;;;;;5080650;28;20415;-39
2021/06/11 11:49:32;;;;;;;8.77;8.07;;;27.00;98.00;;;;;;5086698;28;20192;-38
2021/06/11 11:52:01;;;;;;;8.87;8.17;;;27.00;97.30;;;;;;5069943;28;20184;-39
2021/06/11 11:54:26;;;;;;;8.60;8.00;;;27.00;97.80;;;;;;5070923;28;20196;-39
2021/06/11 11:56:52;;;;;;;8.20;7.47;;;27.10;96.80;;;;;;5088480;28;20434;-39
2021/06/11 11:59:18;;;;;;;8.70;8.10;;;27.10;96.80;;;;;;5083439;28;20368;-39
2021/06/11 12:01:44;;;;;;;7.70;7.03;;;27.10;96.90;;;;;;5080468;28;20199;-39
2021/06/11 12:04:11;;;;;;;8.77;8.00;;;27.10;97.10;;;;;;5080028;28;20763;-38
2021/06/11 12:06:40;;;;;;;9.33;8.47;;;27.10;96.80;;;;;;5088058;28;20772;-39
2021/06/11 12:09:06;;;;;;;8.57;7.90;;;26.90;97.10;;;;;;5087602;28;20422;-39
2021/06/11 12:11:32;;;;;;;9.87;9.10;;;26.80;97.30;;;;;;5088055;28;20430;-39
2021/06/11 12:13:57;;;;;;;9.30;8.70;;;26.70;97.20;;;;;;5068886;28;20492;-39
2021/06/11 12:16:23;;;;;;;10.13;9.37;;;26.70;97.30;;;;;;5079224;28;20566;-38
2021/06/11 12:18:49;;;;;;;9.30;8.67;;;26.90;96.80;;;;;;5083337;28;20678;-38
2021/06/11 12:21:14;;;;;;;9.90;9.30;;;27.00;96.60;;;;;;5049613;28;20842;-39
2021/06/11 12:23:40;;;;;;;10.37;9.50;;;27.20;96.20;;;;;;5087296;28;20655;-39
2021/06/11 12:26:06;;;;;;;11.03;10.10;;;27.20;95.90;;;;;;5087209;28;20706;-39
2021/06/11 12:28:32;;;;;;;10.57;9.87;;;27.20;96.20;;;;;;5086215;28;20483;-39
2021/06/11 12:30:59;;;;;;;8.77;8.07;;;27.30;96.00;;;;;;5074148;28;20248;-38
2021/06/11 12:33:24;;;;;;;10.00;9.20;;;27.20;95.30;;;;;;5085977;28;20246;-39
2021/06/11 12:35:50;;;;;;;9.07;8.47;;;27.00;94.10;;;;;;5087719;28;20438;-38
2021/06/11 12:38:16;;;;;;;8.60;7.90;;;27.00;95.00;;;;;;5087442;28;20192;-39